Brentwood, New Hampshire
Current Conditions -  °F | °C
As of 2:58 PM on Thursday 18 Dec 2014 (Local Time) from KPSM Reporting Station
Broken Clouds Broken Clouds  
Wind Chill: 33°   Ceiling: 3500
Heat Index: 41°   Visibility: 10mi
Dew Point: 29°   Wind: 14mph
Humidity: 62%   Direction: 280°W
Pressure: 29.73"   Gusts: NA
Location:  42.9832°N, 70.9915°W
Report Text: KPSM 181958Z 28012KT 10SM BKN035 05/M02 A2973 RMK AO2A SLP072 T00491019
Loading
Personal Weather Stations






























Interactive Weather Map New forecast layout! Learn more

10-Day Weather Forecast

Advertisements
Track Severe Weather on mobile